Time;durP1;ratioP1;P1;durP2;ratioP2;P2;SDS_P1;SDS_P2;PMS_P1;PMS_P2;Temp;Humidity;BMP_temperature;BMP_pressure;BME280_temperature;BME280_humidity;BME280_pressure;Samples;Min_cycle;Max_cycle;Signal;HPM_P1;HPM_P2
2021/01/28 00:00:29;;;;;;;158.40;27.77;;;7.50;99.90;;;;;;5088038;28;20048;-67
2021/01/28 00:02:54;;;;;;;153.25;27.60;;;7.40;99.90;;;;;;5088467;28;20021;-69
2021/01/28 00:05:21;;;;;;;135.73;27.13;;;7.50;99.90;;;;;;5085860;28;20044;-70
2021/01/28 00:07:47;;;;;;;153.60;26.38;;;7.50;99.90;;;;;;5087467;28;20024;-69
2021/01/28 00:10:14;;;;;;;132.65;24.23;;;7.50;99.90;;;;;;5088677;28;20025;-69
2021/01/28 00:12:39;;;;;;;133.38;25.67;;;7.60;99.90;;;;;;5088336;28;20031;-69
2021/01/28 00:15:07;;;;;;;126.32;26.77;;;7.70;99.90;;;;;;5090422;28;20111;-68
2021/01/28 00:17:33;;;;;;;150.07;27.60;;;7.80;99.90;;;;;;5089881;28;20042;-69
2021/01/28 00:19:58;;;;;;;128.60;27.85;;;7.90;99.90;;;;;;5091480;28;20626;-69
2021/01/28 00:22:25;;;;;;;146.70;27.75;;;8.00;99.90;;;;;;5078256;28;20027;-69
2021/01/28 00:24:51;;;;;;;126.30;28.08;;;7.90;99.90;;;;;;5085542;28;20016;-68
2021/01/28 00:27:17;;;;;;;119.82;25.60;;;7.90;99.90;;;;;;5090278;28;20028;-68
2021/01/28 00:29:42;;;;;;;141.73;26.13;;;7.90;99.90;;;;;;5090042;28;20089;-68
2021/01/28 00:32:08;;;;;;;135.65;28.15;;;7.90;99.90;;;;;;5090369;28;20032;-69
2021/01/28 00:34:34;;;;;;;128.57;27.52;;;7.90;99.90;;;;;;5082070;28;20031;-69
2021/01/28 00:37:00;;;;;;;132.93;27.52;;;7.80;99.90;;;;;;5086662;28;20040;-69
2021/01/28 00:39:26;;;;;;;119.38;25.90;;;7.90;99.90;;;;;;5087731;28;20027;-70
2021/01/28 00:41:51;;;;;;;142.50;28.75;;;7.90;99.90;;;;;;5069596;28;20024;-69
2021/01/28 00:44:17;;;;;;;138.00;27.25;;;7.90;99.90;;;;;;5086676;28;20024;-69
2021/01/28 00:46:42;;;;;;;132.35;27.83;;;7.90;99.90;;;;;;5089203;28;20028;-70
2021/01/28 00:49:08;;;;;;;177.63;29.40;;;7.80;99.90;;;;;;5064260;28;20020;-68
2021/01/28 00:51:33;;;;;;;159.75;30.52;;;7.80;99.90;;;;;;5086891;28;20027;-68
2021/01/28 00:54:00;;;;;;;179.65;30.30;;;7.70;99.90;;;;;;5083714;28;20015;-69
2021/01/28 00:56:25;;;;;;;216.82;32.08;;;7.70;99.90;;;;;;5089662;28;20072;-69
2021/01/28 00:58:53;;;;;;;224.60;34.20;;;7.80;99.90;;;;;;5083320;28;20032;-69
2021/01/28 01:01:18;;;;;;;158.02;30.58;;;7.70;99.90;;;;;;5088394;28;20070;-69
2021/01/28 01:03:44;;;;;;;203.50;32.08;;;7.80;99.90;;;;;;5083425;28;20025;-70
2021/01/28 01:06:09;;;;;;;189.13;31.15;;;7.80;99.90;;;;;;5089217;28;20027;-68
2021/01/28 01:08:35;;;;;;;190.15;31.92;;;7.80;99.90;;;;;;5086782;28;20685;-72
2021/01/28 01:11:08;;;;;;;290.48;38.83;;;7.80;99.90;;;;;;5089942;28;20032;-69
2021/01/28 01:13:35;;;;;;;196.63;34.25;;;7.80;99.90;;;;;;5096098;28;20028;-69
2021/01/28 01:16:03;;;;;;;173.98;30.70;;;7.80;99.90;;;;;;5103168;28;20049;-70
2021/01/28 01:18:32;;;;;;;261.50;38.85;;;7.80;99.90;;;;;;5103691;28;20032;-68
2021/01/28 01:21:00;;;;;;;317.13;41.10;;;7.70;99.90;;;;;;5093906;28;20040;-70
2021/01/28 01:23:26;;;;;;;192.50;34.92;;;7.70;99.90;;;;;;5089911;28;20103;-69
2021/01/28 01:25:52;;;;;;;174.27;33.00;;;7.70;99.90;;;;;;5090044;28;20024;-69
2021/01/28 01:28:18;;;;;;;222.95;35.72;;;7.70;99.90;;;;;;5089607;28;20377;-70
2021/01/28 01:30:44;;;;;;;309.38;41.90;;;7.70;99.90;;;;;;5088071;28;20020;-69
2021/01/28 01:33:10;;;;;;;291.40;42.92;;;7.60;99.90;;;;;;5094691;28;20532;-70
2021/01/28 01:35:36;;;;;;;140.57;35.17;;;7.60;99.90;;;;;;5089519;28;20020;-68
2021/01/28 01:38:03;;;;;;;218.63;36.50;;;7.70;99.90;;;;;;5090659;28;20257;-69
2021/01/28 01:40:39;;;;;;;308.30;40.67;;;7.70;99.90;;;;;;5085614;28;20052;-70
2021/01/28 01:43:06;;;;;;;264.52;39.17;;;7.60;99.90;;;;;;5085209;28;20384;-69
2021/01/28 01:45:42;;;;;;;194.90;36.72;;;7.60;99.90;;;;;;5089294;28;20054;-69
2021/01/28 01:48:44;;;;;;;227.98;36.55;;;7.60;99.90;;;;;;5084529;28;20308;-70
2021/01/28 01:51:19;;;;;;;305.80;41.63;;;7.70;99.90;;;;;;5068597;28;20038;-68
2021/01/28 01:53:53;;;;;;;290.27;42.03;;;7.60;99.90;;;;;;5085686;28;20051;-70
2021/01/28 01:56:28;;;;;;;301.52;40.00;;;7.60;99.90;;;;;;5088459;28;20024;-69
2021/01/28 01:59:11;;;;;;;357.33;43.17;;;7.60;99.90;;;;;;5068484;28;20025;-71
2021/01/28 02:01:40;;;;;;;244.18;34.58;;;7.60;99.90;;;;;;5088633;28;20020;-70
2021/01/28 02:04:07;;;;;;;508.63;48.53;;;7.50;99.90;;;;;;5085046;28;20028;-69
2021/01/28 02:06:49;;;;;;;260.77;40.90;;;7.40;99.90;;;;;;5084740;28;20411;-69
2021/01/28 02:09:15;;;;;;;375.65;43.17;;;7.40;99.90;;;;;;5089083;28;20020;-69
2021/01/28 02:11:42;;;;;;;369.30;43.05;;;7.50;99.90;;;;;;5088540;28;20024;-69
2021/01/28 02:14:10;;;;;;;482.90;48.35;;;7.50;99.90;;;;;;5088148;28;20020;-68
2021/01/28 02:16:45;;;;;;;386.05;44.47;;;7.40;99.90;;;;;;5095400;28;20040;-68
2021/01/28 02:19:45;;;;;;;425.02;44.25;;;7.30;99.90;;;;;;5091320;28;20040;-70
2021/01/28 02:22:11;;;;;;;119.43;32.95;;;7.20;99.90;;;;;;5077043;28;20105;-69
2021/01/28 02:25:03;;;;;;;312.20;43.78;;;7.20;99.90;;;;;;5070188;28;20074;-71
2021/01/28 02:27:31;;;;;;;182.05;39.05;;;7.30;99.90;;;;;;5084257;28;20028;-69
2021/01/28 02:29:56;;;;;;;285.65;39.50;;;7.30;99.90;;;;;;5083279;28;20085;-69
2021/01/28 02:32:22;;;;;;;311.50;43.25;;;7.40;99.90;;;;;;5098941;28;20036;-71
2021/01/28 02:34:47;;;;;;;454.10;52.15;;;7.40;99.90;;;;;;5087803;28;20069;-71
2021/01/28 02:37:21;;;;;;;368.60;44.88;;;7.40;99.90;;;;;;5094663;28;20019;-69
2021/01/28 02:39:47;;;;;;;553.10;53.63;;;7.30;99.90;;;;;;5085855;28;20027;-69
2021/01/28 02:42:18;;;;;;;337.00;42.80;;;7.40;99.90;;;;;;5078367;28;20027;-69
2021/01/28 02:44:44;;;;;;;398.17;47.93;;;7.30;99.90;;;;;;5088300;28;20036;-68
2021/01/28 02:47:10;;;;;;;515.40;53.78;;;7.20;99.90;;;;;;5094970;28;20358;-68
2021/01/28 02:49:36;;;;;;;480.67;52.83;;;7.20;99.90;;;;;;5063549;28;20501;-68
2021/01/28 02:52:01;;;;;;;303.02;44.30;;;7.20;99.90;;;;;;5068170;28;20126;-69
2021/01/28 02:54:27;;;;;;;454.88;52.95;;;7.20;99.90;;;;;;5078272;28;20050;-69
2021/01/28 02:56:52;;;;;;;469.38;51.47;;;7.30;99.90;;;;;;5089794;28;20504;-68
2021/01/28 02:59:18;;;;;;;513.28;51.75;;;7.30;99.90;;;;;;5080570;28;20377;-68
2021/01/28 03:01:44;;;;;;;463.10;53.22;;;7.30;99.90;;;;;;5088242;28;20030;-68
2021/01/28 03:04:10;;;;;;;375.48;46.72;;;7.30;99.90;;;;;;5086807;28;20235;-69
2021/01/28 03:06:36;;;;;;;422.58;52.20;;;7.40;99.90;;;;;;5088347;28;20030;-70
2021/01/28 03:09:05;;;;;;;562.45;55.55;;;7.30;99.90;;;;;;5079576;28;20021;-70
2021/01/28 03:11:30;;;;;;;459.30;52.80;;;7.30;99.90;;;;;;5092956;28;20020;-69
2021/01/28 03:13:56;;;;;;;349.02;48.70;;;7.30;99.90;;;;;;5094345;28;20614;-70
2021/01/28 03:16:21;;;;;;;406.23;50.70;;;7.20;99.90;;;;;;5073796;28;20435;-70
2021/01/28 03:18:47;;;;;;;539.85;57.35;;;7.20;99.90;;;;;;5075007;28;20032;-70
2021/01/28 03:21:13;;;;;;;576.45;58.78;;;7.10;99.90;;;;;;5064941;28;20056;-69
2021/01/28 03:23:39;;;;;;;614.33;63.53;;;7.10;99.90;;;;;;5078727;28;20070;-69
2021/01/28 03:26:05;;;;;;;537.03;55.42;;;7.00;99.90;;;;;;5049026;28;20024;-69
2021/01/28 03:28:30;;;;;;;445.95;51.97;;;7.10;99.90;;;;;;5043097;28;20059;-68
2021/01/28 03:30:56;;;;;;;293.38;43.88;;;7.10;99.90;;;;;;5066157;28;20111;-68
2021/01/28 03:33:22;;;;;;;588.50;62.58;;;7.10;99.90;;;;;;5063977;28;20022;-69
2021/01/28 03:35:49;;;;;;;584.33;59.13;;;7.10;99.90;;;;;;5047773;28;20029;-70
2021/01/28 03:38:16;;;;;;;475.63;53.67;;;7.00;99.90;;;;;;5067348;28;20041;-69
2021/01/28 03:40:42;;;;;;;480.85;55.42;;;7.00;99.90;;;;;;5067045;28;20458;-68
2021/01/28 03:43:08;;;;;;;722.85;66.60;;;6.90;99.90;;;;;;5067816;28;20043;-68
2021/01/28 03:45:34;;;;;;;483.15;50.42;;;7.00;99.90;;;;;;5036326;28;20488;-69
2021/01/28 03:48:01;;;;;;;465.80;50.72;;;6.90;99.90;;;;;;5057901;28;20028;-69
2021/01/28 03:50:31;;;;;;;625.97;60.72;;;6.90;99.90;;;;;;5061222;28;20474;-68
2021/01/28 03:52:57;;;;;;;441.73;49.78;;;6.90;99.90;;;;;;5057052;28;20048;-70
2021/01/28 03:55:23;;;;;;;456.00;49.35;;;7.00;99.90;;;;;;5057325;28;20681;-69
2021/01/28 03:57:51;;;;;;;306.73;42.50;;;7.00;99.90;;;;;;5057091;28;20032;-70
2021/01/28 04:00:19;;;;;;;385.92;48.22;;;7.10;99.90;;;;;;5073958;28;20016;-70
2021/01/28 04:02:45;;;;;;;457.00;53.00;;;7.10;99.90;;;;;;5053018;28;20025;-70
2021/01/28 04:05:13;;;;;;;426.00;48.92;;;7.10;99.90;;;;;;5042084;28;20108;-70
2021/01/28 04:07:38;;;;;;;363.60;46.55;;;7.20;99.90;;;;;;5046873;28;20181;-70
2021/01/28 04:10:10;;;;;;;360.25;47.03;;;7.20;99.90;;;;;;5062663;28;20112;-70
2021/01/28 04:12:37;;;;;;;425.98;46.50;;;7.10;99.90;;;;;;5066681;28;20032;-71
2021/01/28 04:15:06;;;;;;;446.73;50.28;;;7.10;99.90;;;;;;5069779;28;20035;-72
2021/01/28 04:17:31;;;;;;;370.48;47.13;;;7.10;99.90;;;;;;5067106;28;20055;-72
2021/01/28 04:19:57;;;;;;;422.25;48.15;;;7.00;99.90;;;;;;5082899;28;20025;-72
2021/01/28 04:22:24;;;;;;;281.88;42.30;;;7.10;99.90;;;;;;5090624;28;20051;-73
2021/01/28 04:24:49;;;;;;;324.08;42.35;;;7.10;99.90;;;;;;5090808;28;20016;-71
2021/01/28 04:27:16;;;;;;;444.23;46.80;;;7.10;99.90;;;;;;5090474;28;20039;-72
2021/01/28 04:29:41;;;;;;;328.67;43.28;;;7.00;99.90;;;;;;5087595;28;20544;-71
2021/01/28 04:32:08;;;;;;;347.85;45.17;;;7.00;99.90;;;;;;5072656;28;20159;-71
2021/01/28 04:34:34;;;;;;;254.57;39.72;;;7.00;99.90;;;;;;5093790;28;20531;-72
2021/01/28 04:37:00;;;;;;;278.88;38.67;;;6.90;99.90;;;;;;5090725;28;20021;-74
2021/01/28 04:39:26;;;;;;;276.15;38.25;;;6.90;99.90;;;;;;5091028;28;20028;-73
2021/01/28 04:41:52;;;;;;;256.75;36.88;;;6.90;99.90;;;;;;5064566;28;20012;-71
2021/01/28 04:44:18;;;;;;;330.15;40.38;;;6.90;99.90;;;;;;5072966;28;20020;-71
2021/01/28 04:46:56;;;;;;;245.80;36.35;;;6.80;99.90;;;;;;5091271;28;20351;-72
2021/01/28 04:49:25;;;;;;;213.05;35.28;;;6.70;99.90;;;;;;5081356;28;20122;-73
2021/01/28 04:52:01;;;;;;;226.40;34.25;;;6.60;99.90;;;;;;5087212;28;20043;-72
2021/01/28 04:54:32;;;;;;;220.02;33.85;;;6.70;99.90;;;;;;5089252;28;20027;-74
2021/01/28 04:57:03;;;;;;;213.55;32.80;;;6.70;99.90;;;;;;5070500;28;20028;-74
2021/01/28 04:59:34;;;;;;;268.35;35.80;;;6.80;99.90;;;;;;5086439;28;20036;-75
2021/01/28 05:02:04;;;;;;;195.48;32.33;;;6.70;99.90;;;;;;5086213;28;20181;-75
2021/01/28 05:04:41;;;;;;;200.18;30.50;;;6.70;99.90;;;;;;5086611;28;20024;-75
2021/01/28 05:07:10;;;;;;;176.15;27.92;;;6.60;99.90;;;;;;5089850;28;20020;-74
2021/01/28 05:09:36;;;;;;;159.20;27.52;;;6.50;99.90;;;;;;5052600;28;20078;-74
2021/01/28 05:12:02;;;;;;;145.32;25.88;;;6.60;99.90;;;;;;5080925;28;20032;-71
2021/01/28 05:14:34;;;;;;;157.00;26.60;;;6.70;99.90;;;;;;5083404;28;20116;-73
2021/01/28 05:17:04;;;;;;;157.30;25.42;;;6.70;99.90;;;;;;5047971;28;20108;-75
2021/01/28 05:19:33;;;;;;;191.70;28.52;;;6.60;99.90;;;;;;5090586;28;20104;-71
2021/01/28 05:22:11;;;;;;;145.50;24.20;;;6.50;99.90;;;;;;5086852;28;20028;-73
2021/01/28 05:24:41;;;;;;;126.28;22.98;;;6.60;99.90;;;;;;5086578;28;20024;-75
2021/01/28 05:27:32;;;;;;;129.27;22.50;;;6.50;99.90;;;;;;5089852;28;20466;-74
2021/01/28 05:30:00;;;;;;;108.03;21.20;;;6.50;99.90;;;;;;5084324;28;20040;-74
2021/01/28 05:32:38;;;;;;;90.53;20.17;;;6.60;99.90;;;;;;5088162;28;20028;-73
2021/01/28 05:35:26;;;;;;;100.63;19.27;;;6.50;99.90;;;;;;5086591;28;20028;-74
2021/01/28 05:38:06;;;;;;;101.03;19.20;;;6.40;99.90;;;;;;5088365;28;20044;-74
2021/01/28 05:40:32;;;;;;;71.30;16.23;;;6.40;99.90;;;;;;5087841;28;20594;-73
2021/01/28 05:42:59;;;;;;;85.43;16.77;;;6.40;99.90;;;;;;5088703;28;20040;-74
2021/01/28 05:45:38;;;;;;;75.32;16.42;;;6.40;99.90;;;;;;5085724;28;20086;-72
2021/01/28 05:48:25;;;;;;;77.85;15.88;;;6.40;99.90;;;;;;5086418;28;20028;-75
2021/01/28 05:51:16;;;;;;;64.38;14.77;;;6.40;99.90;;;;;;5076747;28;20012;-74
2021/01/28 05:53:56;;;;;;;80.28;15.07;;;6.40;99.90;;;;;;5081524;28;20024;-75
2021/01/28 05:56:22;;;;;;;57.33;14.73;;;6.40;99.90;;;;;;5094622;28;20537;-75
2021/01/28 05:59:02;;;;;;;66.50;15.40;;;6.40;99.90;;;;;;5093332;28;20547;-73
2021/01/28 06:01:36;;;;;;;59.53;15.77;;;6.30;99.90;;;;;;5086925;28;20028;-72
2021/01/28 06:04:35;;;;;;;60.20;15.45;;;6.40;99.90;;;;;;5106210;28;20028;-70
2021/01/28 06:07:20;;;;;;;62.58;14.48;;;6.40;99.90;;;;;;5063306;28;20036;-70
2021/01/28 06:10:24;;;;;;;53.05;13.85;;;6.40;99.90;;;;;;5077838;28;20025;-72
2021/01/28 06:13:01;;;;;;;53.92;14.80;;;6.40;99.90;;;;;;5057509;28;20047;-70
2021/01/28 06:16:00;;;;;;;68.03;14.45;;;6.40;99.90;;;;;;5084840;28;20070;-72
2021/01/28 06:19:04;;;;;;;57.88;13.90;;;6.40;99.90;;;;;;5064084;28;20040;-73
2021/01/28 06:21:57;;;;;;;50.40;13.55;;;6.40;99.90;;;;;;5085598;28;20032;-71
2021/01/28 06:24:48;;;;;;;48.92;12.25;;;6.30;99.90;;;;;;5083198;28;20036;-71
2021/01/28 06:27:48;;;;;;;43.75;12.13;;;6.30;99.90;;;;;;5091877;28;20034;-71
2021/01/28 06:30:37;;;;;;;47.78;11.77;;;6.30;99.90;;;;;;5089731;28;20057;-75
2021/01/28 06:33:11;;;;;;;38.05;10.10;;;6.30;99.90;;;;;;5086669;28;20105;-73
2021/01/28 06:36:00;;;;;;;37.50;10.98;;;6.20;99.90;;;;;;5086483;28;20093;-74
2021/01/28 06:38:47;;;;;;;42.67;9.57;;;6.20;99.90;;;;;;5086744;28;20032;-72
2021/01/28 06:41:21;;;;;;;34.95;10.00;;;6.20;99.90;;;;;;5087083;28;20051;-73
2021/01/28 06:44:10;;;;;;;33.15;9.50;;;6.20;99.90;;;;;;5084343;28;20016;-71
2021/01/28 06:46:42;;;;;;;28.65;8.55;;;6.20;99.90;;;;;;5086554;28;20028;-72
2021/01/28 06:49:36;;;;;;;28.83;8.40;;;6.20;99.90;;;;;;5082970;28;20040;-74
2021/01/28 06:52:43;;;;;;;30.48;8.57;;;6.20;99.90;;;;;;5080872;28;20020;-71
2021/01/28 06:55:39;;;;;;;32.30;9.95;;;6.10;99.90;;;;;;5079685;28;20437;-71
2021/01/28 06:58:26;;;;;;;33.88;9.95;;;6.10;99.90;;;;;;5069902;28;20076;-74
2021/01/28 07:01:03;;;;;;;27.90;9.45;;;6.10;99.90;;;;;;5084694;28;20028;-72
2021/01/28 07:03:53;;;;;;;26.08;9.05;;;6.10;99.90;;;;;;5086641;28;20036;-72
2021/01/28 07:06:40;;;;;;;31.42;9.00;;;6.00;99.90;;;;;;5086238;28;20043;-72
2021/01/28 07:09:26;;;;;;;39.05;9.10;;;6.10;99.90;;;;;;5086681;28;20012;-73
2021/01/28 07:12:00;;;;;;;26.58;9.07;;;6.10;99.90;;;;;;5087327;28;20377;-70
2021/01/28 07:14:26;;;;;;;28.88;8.98;;;6.00;99.90;;;;;;5070990;28;20028;-69
2021/01/28 07:17:07;;;;;;;22.15;8.98;;;6.00;99.90;;;;;;5088786;28;20054;-70
2021/01/28 07:19:36;;;;;;;21.23;8.40;;;6.00;99.90;;;;;;5088655;28;20043;-70
2021/01/28 07:22:38;;;;;;;19.35;8.07;;;6.00;99.90;;;;;;5083040;28;20012;-72
2021/01/28 07:25:28;;;;;;;22.75;9.38;;;6.00;99.90;;;;;;5056949;28;20145;-70
2021/01/28 07:28:02;;;;;;;23.20;9.45;;;6.00;99.90;;;;;;5085349;28;20024;-70
2021/01/28 07:30:51;;;;;;;25.65;10.27;;;6.00;99.90;;;;;;5068225;28;20024;-71
2021/01/28 07:33:23;;;;;;;24.75;9.88;;;6.00;99.90;;;;;;5067269;28;20088;-72
2021/01/28 07:35:56;;;;;;;30.40;10.32;;;6.00;99.90;;;;;;5088255;28;20485;-69
2021/01/28 07:38:28;;;;;;;27.08;10.10;;;6.00;99.90;;;;;;5081041;28;20071;-68
2021/01/28 07:41:09;;;;;;;29.42;10.95;;;6.00;99.90;;;;;;5091469;28;20040;-69
2021/01/28 07:43:49;;;;;;;24.98;9.85;;;6.00;99.90;;;;;;5086194;28;20020;-71
2021/01/28 07:46:27;;;;;;;25.05;9.68;;;6.00;99.90;;;;;;5070341;28;20480;-70
2021/01/28 07:49:16;;;;;;;25.05;9.43;;;6.00;99.90;;;;;;5083921;28;20137;-70
2021/01/28 07:51:46;;;;;;;21.20;7.70;;;5.90;99.90;;;;;;5091377;28;20027;-70
2021/01/28 07:54:23;;;;;;;23.25;7.85;;;6.00;99.90;;;;;;5085081;28;20020;-70
2021/01/28 07:57:04;;;;;;;17.40;7.20;;;6.00;99.90;;;;;;5086361;28;20016;-71
2021/01/28 07:59:54;;;;;;;19.67;7.13;;;6.00;99.90;;;;;;5088240;28;20032;-73
2021/01/28 08:02:22;;;;;;;15.25;6.43;;;6.00;99.90;;;;;;5077385;28;20044;-69
2021/01/28 08:05:11;;;;;;;15.18;6.50;;;6.00;99.90;;;;;;5095955;28;20032;-72
2021/01/28 08:08:01;;;;;;;17.67;6.07;;;5.90;99.90;;;;;;5090580;28;20020;-71
2021/01/28 08:10:55;;;;;;;16.63;6.07;;;6.00;99.90;;;;;;5059304;28;20035;-73
2021/01/28 08:13:24;;;;;;;12.15;4.97;;;6.00;99.90;;;;;;5072800;28;20036;-72
2021/01/28 08:15:56;;;;;;;13.93;5.43;;;6.00;99.90;;;;;;5089349;28;20097;-71
2021/01/28 08:18:31;;;;;;;15.50;5.32;;;6.00;99.90;;;;;;5090998;28;20043;-71
2021/01/28 08:21:12;;;;;;;14.50;5.65;;;5.90;99.90;;;;;;5075276;28;21150;-70
2021/01/28 08:23:42;;;;;;;13.30;5.82;;;5.90;99.90;;;;;;5091323;28;20648;-69
2021/01/28 08:26:12;;;;;;;13.45;5.85;;;5.90;99.90;;;;;;5087309;28;20388;-70
2021/01/28 08:28:40;;;;;;;15.45;6.07;;;5.90;99.90;;;;;;5061744;28;20020;-70
2021/01/28 08:31:12;;;;;;;13.20;7.43;;;5.90;99.90;;;;;;5089278;28;20381;-71
2021/01/28 08:33:44;;;;;;;17.73;8.25;;;5.80;99.90;;;;;;5090865;28;20465;-70
2021/01/28 08:36:44;;;;;;;17.77;7.88;;;5.80;99.90;;;;;;5076727;28;20035;-69
2021/01/28 08:39:19;;;;;;;20.92;8.13;;;5.80;99.90;;;;;;5017491;28;20363;-69
2021/01/28 08:42:00;;;;;;;18.20;7.47;;;5.80;99.90;;;;;;5090125;28;20023;-70
2021/01/28 08:44:25;;;;;;;18.10;7.20;;;5.80;99.90;;;;;;5092332;28;20514;-70
2021/01/28 08:47:17;;;;;;;12.75;7.13;;;5.80;99.90;;;;;;5070517;28;20028;-70
2021/01/28 08:50:00;;;;;;;12.20;6.60;;;5.80;99.90;;;;;;5090383;28;20016;-72
2021/01/28 08:52:26;;;;;;;;;;;5.80;99.90;;;;;;5090636;28;20016;-72
2021/01/28 08:54:52;;;;;;;18.58;7.25;;;5.80;99.90;;;;;;5072249;28;19915;-69
2021/01/28 08:57:21;;;;;;;17.33;7.10;;;5.80;99.90;;;;;;5089079;28;20021;-69
2021/01/28 08:59:48;;;;;;;14.75;7.50;;;5.80;99.90;;;;;;5067984;28;20056;-69
2021/01/28 09:02:18;;;;;;;15.20;6.75;;;5.80;99.90;;;;;;5086675;28;20500;-70
2021/01/28 09:04:50;;;;;;;15.77;6.65;;;5.80;99.90;;;;;;5089796;28;20077;-70
2021/01/28 09:07:48;;;;;;;14.00;5.80;;;5.90;99.90;;;;;;5088116;28;20031;-69
2021/01/28 09:10:41;;;;;;;13.25;5.25;;;5.90;99.90;;;;;;5078563;28;20066;-69
2021/01/28 09:13:10;;;;;;;;;;;5.90;99.90;;;;;;5087259;28;20035;-70
2021/01/28 09:15:36;;;;;;;11.73;5.15;;;5.90;99.90;;;;;;5088164;28;19955;-70
2021/01/28 09:18:26;;;;;;;10.02;4.28;;;5.80;99.90;;;;;;5077451;28;20044;-70
2021/01/28 09:21:06;;;;;;;17.40;5.53;;;5.80;99.90;;;;;;5058155;28;20036;-71
2021/01/28 09:23:33;;;;;;;11.77;5.15;;;5.90;99.90;;;;;;5091351;28;20016;-68
2021/01/28 09:26:18;;;;;;;15.90;4.93;;;5.90;99.90;;;;;;5070557;28;20101;-69
2021/01/28 09:28:43;;;;;;;12.35;5.32;;;5.80;99.90;;;;;;5090195;28;20059;-70
2021/01/28 09:31:25;;;;;;;15.32;5.53;;;5.80;99.90;;;;;;5089144;28;20032;-69
2021/01/28 09:33:51;;;;;;;15.48;6.97;;;5.80;99.90;;;;;;5070857;28;20107;-69
2021/01/28 09:36:26;;;;;;;16.15;7.22;;;5.80;99.90;;;;;;5089444;28;20024;-69
2021/01/28 09:38:59;;;;;;;17.55;8.18;;;5.80;99.90;;;;;;5086589;28;20538;-70
2021/01/28 09:41:32;;;;;;;17.45;8.23;;;5.80;99.90;;;;;;5085655;28;20103;-69
2021/01/28 09:43:58;;;;;;;19.25;9.15;;;5.80;99.90;;;;;;5089193;28;20023;-70
2021/01/28 09:46:30;;;;;;;20.25;7.88;;;5.80;99.90;;;;;;5065120;28;20032;-70
2021/01/28 09:49:00;;;;;;;19.05;8.25;;;5.80;99.90;;;;;;5060968;28;20334;-71
2021/01/28 09:51:30;;;;;;;16.20;7.50;;;5.80;99.90;;;;;;5084447;28;20402;-69
2021/01/28 09:54:10;;;;;;;15.23;6.70;;;5.90;99.90;;;;;;5079323;28;20028;-69
2021/01/28 09:56:37;;;;;;;20.27;7.28;;;5.90;99.90;;;;;;5088006;28;20020;-70
2021/01/28 09:59:02;;;;;;;15.10;6.15;;;5.90;99.90;;;;;;5083469;28;20497;-70
2021/01/28 10:01:28;;;;;;;17.80;6.72;;;5.90;99.90;;;;;;5086020;28;20024;-70
2021/01/28 10:03:54;;;;;;;15.55;5.55;;;5.90;99.90;;;;;;5088499;28;20031;-71
2021/01/28 10:06:19;;;;;;;14.00;5.20;;;5.90;99.90;;;;;;5089336;28;20024;-70
2021/01/28 10:08:45;;;;;;;10.93;5.22;;;5.90;99.90;;;;;;5084884;28;20083;-70
2021/01/28 10:11:10;;;;;;;10.48;5.25;;;5.90;99.90;;;;;;5067166;28;20028;-72
2021/01/28 10:13:36;;;;;;;13.57;6.40;;;6.00;99.90;;;;;;5088479;28;20489;-71
2021/01/28 10:16:03;;;;;;;10.95;5.72;;;6.00;99.90;;;;;;5085905;28;20055;-71
2021/01/28 10:18:28;;;;;;;18.08;5.97;;;6.00;99.90;;;;;;5075412;28;20048;-70
2021/01/28 10:20:54;;;;;;;18.20;7.60;;;6.10;99.90;;;;;;5085176;28;20043;-69
2021/01/28 10:23:20;;;;;;;12.70;6.03;;;6.00;99.90;;;;;;5085725;28;20043;-69
2021/01/28 10:25:47;;;;;;;15.77;6.30;;;6.00;99.90;;;;;;5087340;28;20016;-69
2021/01/28 10:28:13;;;;;;;13.48;6.45;;;6.00;99.90;;;;;;5088458;28;20036;-69
2021/01/28 10:30:38;;;;;;;15.52;6.43;;;6.00;99.90;;;;;;5089285;28;20228;-70
2021/01/28 10:33:04;;;;;;;14.00;6.53;;;6.00;99.90;;;;;;5065980;28;20036;-70
2021/01/28 10:35:32;;;;;;;14.73;6.75;;;6.10;99.90;;;;;;5088387;28;20025;-70
2021/01/28 10:37:58;;;;;;;9.70;5.32;;;6.00;99.90;;;;;;5071168;28;20036;-69
2021/01/28 10:40:24;;;;;;;12.20;5.85;;;6.00;99.90;;;;;;5087787;28;20552;-70
2021/01/28 10:42:55;;;;;;;17.60;6.72;;;6.10;99.90;;;;;;5096866;28;20019;-69
2021/01/28 10:45:26;;;;;;;11.55;5.85;;;6.10;99.90;;;;;;5094398;28;20024;-70
2021/01/28 10:47:52;;;;;;;15.30;6.68;;;6.00;99.90;;;;;;5101922;28;20028;-70
2021/01/28 10:50:20;;;;;;;17.73;7.45;;;6.00;99.90;;;;;;5092301;28;20020;-70
2021/01/28 10:52:46;;;;;;;18.55;7.15;;;6.10;99.90;;;;;;5086318;28;20063;-71
2021/01/28 10:55:12;;;;;;;19.60;6.95;;;6.00;99.90;;;;;;5088860;28;20473;-70
2021/01/28 10:57:37;;;;;;;16.38;7.13;;;6.10;99.90;;;;;;5088718;28;20157;-71
2021/01/28 11:00:05;;;;;;;16.42;6.05;;;6.10;99.90;;;;;;5083265;28;20042;-70
2021/01/28 11:02:30;;;;;;;11.77;6.10;;;6.10;99.90;;;;;;5076803;28;20076;-69
2021/01/28 11:04:56;;;;;;;14.55;6.82;;;6.10;99.90;;;;;;5087706;28;20023;-70
2021/01/28 11:07:22;;;;;;;16.38;6.40;;;6.10;99.90;;;;;;5086976;28;20381;-71
2021/01/28 11:09:48;;;;;;;13.93;6.85;;;6.10;99.90;;;;;;5072329;28;20085;-72
2021/01/28 11:12:13;;;;;;;12.25;5.93;;;6.10;99.90;;;;;;5087317;28;20037;-71
2021/01/28 11:14:40;;;;;;;17.38;6.55;;;6.10;99.90;;;;;;5087434;28;20036;-72
2021/01/28 11:17:05;;;;;;;16.92;6.65;;;6.10;99.90;;;;;;5086810;28;20044;-70
2021/01/28 11:19:32;;;;;;;13.57;5.75;;;6.20;99.90;;;;;;5084447;28;20405;-71
2021/01/28 11:21:57;;;;;;;13.93;5.63;;;6.10;99.90;;;;;;5085976;28;20381;-70
2021/01/28 11:24:23;;;;;;;13.25;5.65;;;6.10;99.90;;;;;;5091582;28;20032;-72
2021/01/28 11:26:49;;;;;;;12.82;5.90;;;6.10;99.90;;;;;;5067579;28;20036;-71
2021/01/28 11:29:21;;;;;;;18.92;7.00;;;6.10;99.90;;;;;;5073468;28;20084;-70
2021/01/28 11:31:47;;;;;;;8.65;4.68;;;6.20;99.90;;;;;;5088601;28;20040;-71
2021/01/28 11:34:15;;;;;;;11.23;5.53;;;6.20;99.90;;;;;;5071498;28;20032;-70
2021/01/28 11:36:41;;;;;;;14.75;6.35;;;6.30;99.90;;;;;;5086808;28;20162;-70
2021/01/28 11:39:06;;;;;;;12.65;6.38;;;6.30;99.90;;;;;;5084574;28;20114;-71
2021/01/28 11:41:32;;;;;;;11.48;6.03;;;6.30;99.90;;;;;;5076253;28;20389;-70
2021/01/28 11:43:58;;;;;;;13.25;5.18;;;6.30;99.90;;;;;;5090011;28;20023;-73
2021/01/28 11:46:24;;;;;;;12.93;6.00;;;6.40;99.90;;;;;;5078834;28;20040;-70
2021/01/28 11:48:49;;;;;;;14.35;5.70;;;6.40;99.90;;;;;;5068296;28;20016;-69
2021/01/28 11:51:15;;;;;;;12.93;5.40;;;6.40;99.90;;;;;;5082470;28;20520;-72
2021/01/28 11:53:40;;;;;;;7.50;4.63;;;6.40;99.90;;;;;;5090393;28;20030;-71
2021/01/28 11:56:06;;;;;;;11.90;5.00;;;6.40;99.90;;;;;;5089896;28;20016;-71
2021/01/28 11:58:31;;;;;;;6.85;4.45;;;6.40;99.90;;;;;;5086150;28;20123;-71
2021/01/28 12:00:57;;;;;;;5.70;3.38;;;6.40;99.90;;;;;;5085790;28;20078;-71
2021/01/28 12:03:23;;;;;;;10.40;4.95;;;6.40;99.90;;;;;;5087389;28;20024;-70
2021/01/28 12:05:50;;;;;;;8.27;4.90;;;6.40;99.90;;;;;;5066111;28;20029;-70
2021/01/28 12:08:16;;;;;;;7.20;3.72;;;6.40;99.90;;;;;;5074652;28;20031;-70
2021/01/28 12:10:41;;;;;;;6.57;3.80;;;6.30;99.90;;;;;;5090719;28;20023;-71
2021/01/28 12:13:07;;;;;;;6.93;4.25;;;6.40;99.90;;;;;;5089994;28;20342;-72
2021/01/28 12:15:32;;;;;;;7.65;4.05;;;6.30;99.90;;;;;;5071338;28;20047;-72
2021/01/28 12:17:59;;;;;;;8.60;4.82;;;6.40;99.90;;;;;;5091533;28;20119;-71
2021/01/28 12:20:28;;;;;;;8.40;4.30;;;6.30;99.90;;;;;;5091270;28;20055;-70
2021/01/28 12:22:54;;;;;;;6.50;3.58;;;6.40;99.90;;;;;;5091307;28;20031;-73
2021/01/28 12:25:20;;;;;;;10.55;4.47;;;6.30;99.90;;;;;;5073546;28;20032;-70
2021/01/28 12:27:46;;;;;;;9.85;4.55;;;6.40;99.90;;;;;;5089183;28;20611;-70
2021/01/28 12:30:13;;;;;;;7.43;3.80;;;6.40;99.90;;;;;;5089986;28;20119;-70
2021/01/28 12:32:39;;;;;;;8.00;4.05;;;6.40;99.90;;;;;;5091153;28;20132;-71
2021/01/28 12:35:07;;;;;;;6.75;3.78;;;6.50;99.90;;;;;;5090578;28;20422;-69
2021/01/28 12:37:34;;;;;;;8.38;3.83;;;6.50;99.90;;;;;;5072301;28;20024;-71
2021/01/28 12:40:00;;;;;;;8.18;4.13;;;6.60;99.90;;;;;;5072389;28;20031;-73
2021/01/28 12:42:27;;;;;;;8.60;3.85;;;6.50;99.90;;;;;;5073194;28;20021;-72
2021/01/28 12:44:53;;;;;;;8.68;3.83;;;6.60;99.90;;;;;;5088941;28;20058;-71
2021/01/28 12:47:19;;;;;;;9.02;4.05;;;6.60;99.90;;;;;;5079251;28;20024;-70
2021/01/28 12:49:45;;;;;;;6.60;3.45;;;6.60;99.90;;;;;;5070785;28;20023;-72
2021/01/28 12:52:11;;;;;;;6.90;3.80;;;6.50;99.90;;;;;;5088632;28;20023;-70
2021/01/28 12:54:37;;;;;;;5.28;3.33;;;6.50;99.90;;;;;;5090579;28;20028;-71
2021/01/28 12:57:03;;;;;;;8.85;3.78;;;6.50;99.90;;;;;;5090118;28;20381;-71
2021/01/28 12:59:28;;;;;;;5.78;3.30;;;6.50;99.90;;;;;;5090713;28;20032;-71